createdAt,value
2018-06-03T00:00:53.955Z,62.82
2018-06-03T00:03:20.229Z,62.79
2018-06-03T00:05:46.471Z,62.79
2018-06-03T00:08:12.730Z,62.75
2018-06-03T00:10:39.003Z,62.98
2018-06-03T00:13:05.236Z,62.95
2018-06-03T00:15:31.487Z,63.20
2018-06-03T00:17:57.714Z,63.07
2018-06-03T00:20:29.878Z,62.75
2018-06-03T00:22:56.146Z,62.81
2018-06-03T00:25:22.405Z,62.75
2018-06-03T00:27:48.670Z,63.04
2018-06-03T00:30:14.906Z,63.55
2018-06-03T00:32:41.143Z,63.50
2018-06-03T00:35:07.412Z,63.50
2018-06-03T00:37:33.643Z,63.55
2018-06-03T00:39:59.911Z,63.35
2018-06-03T00:42:26.151Z,63.09
2018-06-03T00:44:52.410Z,63.03
2018-06-03T00:47:18.647Z,63.08
2018-06-03T00:49:44.907Z,63.12
2018-06-03T00:52:11.163Z,63.05
2018-06-03T00:54:37.404Z,63.23
2018-06-03T00:57:08.554Z,63.94
2018-06-03T00:59:34.782Z,64.14
2018-06-03T01:02:01.067Z,64.12
2018-06-03T01:04:27.329Z,64.16
2018-06-03T01:06:53.581Z,64.18
2018-06-03T01:09:19.846Z,64.08
2018-06-03T01:11:46.066Z,64.48
2018-06-03T01:14:12.324Z,64.73
2018-06-03T01:16:38.562Z,64.86
2018-06-03T01:19:04.807Z,64.77
2018-06-03T01:21:31.080Z,64.65
2018-06-03T01:23:57.347Z,64.94
2018-06-03T01:26:23.594Z,64.88
2018-06-03T01:28:49.847Z,64.70
2018-06-03T01:31:16.076Z,64.57
2018-06-03T01:33:42.378Z,64.77
2018-06-03T01:36:08.626Z,64.73
2018-06-03T01:38:34.863Z,65.06
2018-06-03T01:41:01.116Z,64.86
2018-06-03T01:43:27.362Z,65.01
2018-06-03T01:45:53.679Z,64.82
2018-06-03T01:48:19.934Z,64.87
2018-06-03T01:50:46.175Z,64.75
2018-06-03T01:53:12.442Z,64.85
2018-06-03T01:55:38.710Z,64.91
2018-06-03T01:58:04.987Z,64.73
2018-06-03T02:00:31.270Z,64.78
2018-06-03T02:02:57.527Z,64.81
2018-06-03T02:05:23.755Z,64.51
2018-06-03T02:07:50.052Z,64.68
2018-06-03T02:10:16.279Z,64.76
2018-06-03T02:12:42.522Z,64.79
2018-06-03T02:15:08.794Z,64.73
2018-06-03T02:17:35.027Z,64.75
2018-06-03T02:20:01.290Z,64.81
2018-06-03T02:22:27.582Z,64.82
2018-06-03T02:24:53.815Z,64.67
2018-06-03T02:27:20.041Z,64.72
2018-06-03T02:29:46.311Z,64.72
2018-06-03T02:32:12.555Z,64.67
2018-06-03T02:34:38.803Z,64.66
2018-06-03T02:37:05.070Z,64.84
2018-06-03T02:39:31.289Z,65.08
2018-06-03T02:41:57.539Z,64.99
2018-06-03T02:44:23.802Z,64.89
2018-06-03T02:46:50.083Z,64.96
2018-06-03T02:49:16.335Z,65.05
2018-06-03T02:51:42.635Z,65.10
2018-06-03T02:54:08.923Z,65.24
2018-06-03T02:56:35.170Z,65.62
2018-06-03T02:59:01.453Z,65.56
2018-06-03T03:01:27.688Z,66.01
2018-06-03T03:03:53.939Z,65.83
2018-06-03T03:06:20.199Z,65.54
2018-06-03T03:08:46.445Z,65.92
2018-06-03T03:11:12.675Z,65.90
2018-06-03T03:13:38.963Z,65.88
2018-06-03T03:16:05.201Z,65.76
2018-06-03T03:18:31.436Z,65.35
2018-06-03T03:20:57.731Z,65.24
2018-06-03T03:23:23.975Z,65.63
2018-06-03T03:25:50.214Z,65.88
2018-06-03T03:28:16.502Z,65.79
2018-06-03T03:30:42.735Z,66.15
2018-06-03T03:33:08.993Z,66.46
2018-06-03T03:35:35.256Z,66.57
2018-06-03T03:38:01.496Z,66.73
2018-06-03T03:40:27.746Z,67.23
2018-06-03T03:42:54.026Z,67.31
2018-06-03T03:45:20.254Z,67.29
2018-06-03T03:47:46.480Z,67.17
2018-06-03T03:50:12.767Z,67.24
2018-06-03T03:52:39.014Z,67.11
2018-06-03T03:55:05.258Z,67.12
2018-06-03T03:57:31.524Z,66.99
2018-06-03T03:59:57.755Z,67.12
2018-06-03T04:02:23.987Z,67.41
2018-06-03T04:04:50.259Z,67.21
2018-06-03T04:07:16.511Z,67.31
2018-06-03T04:09:42.751Z,67.12
2018-06-03T04:12:09.020Z,66.99
2018-06-03T04:14:35.263Z,66.78
2018-06-03T04:17:01.499Z,66.49
2018-06-03T04:19:27.760Z,66.25
2018-06-03T04:21:53.999Z,66.08
2018-06-03T04:24:20.230Z,66.24
2018-06-03T04:26:46.495Z,66.05
2018-06-03T04:29:12.733Z,65.76
2018-06-03T04:31:38.972Z,66.01
2018-06-03T04:34:05.272Z,65.88
2018-06-03T04:36:31.486Z,65.67
2018-06-03T04:38:57.715Z,65.82
2018-06-03T04:41:24.034Z,65.70
2018-06-03T04:43:50.289Z,65.48
2018-06-03T04:46:16.549Z,65.52
2018-06-03T04:48:42.870Z,65.23
2018-06-03T04:51:09.102Z,65.36
2018-06-03T04:53:35.399Z,65.31
2018-06-03T04:56:01.719Z,65.13
2018-06-03T04:58:27.974Z,65.13
2018-06-03T05:00:54.219Z,64.97
2018-06-03T05:03:20.538Z,64.53
2018-06-03T05:05:46.853Z,64.43
2018-06-03T05:08:13.126Z,64.66
2018-06-03T05:10:39.399Z,64.35
2018-06-03T05:13:05.642Z,64.18
2018-06-03T05:15:31.869Z,63.69
2018-06-03T05:17:58.926Z,64.11
2018-06-03T05:20:25.236Z,64.32
2018-06-03T05:22:51.499Z,64.39
2018-06-03T05:25:17.881Z,63.91
2018-06-03T05:27:44.130Z,63.87
2018-06-03T05:30:10.383Z,63.08
2018-06-03T05:32:36.660Z,63.03
2018-06-03T05:35:02.944Z,62.64
2018-06-03T05:37:29.271Z,62.37
2018-06-03T05:39:55.554Z,62.00
2018-06-03T05:42:21.834Z,62.01
2018-06-03T05:44:48.080Z,61.92
2018-06-03T05:47:14.375Z,62.15
2018-06-03T05:49:40.708Z,62.28
2018-06-03T05:52:06.966Z,62.11
2018-06-03T05:54:33.302Z,61.86
2018-06-03T05:56:59.590Z,62.21
2018-06-03T05:59:25.915Z,62.42
2018-06-03T06:01:52.214Z,61.75
2018-06-03T06:04:18.534Z,61.71
2018-06-03T06:06:44.821Z,61.20
2018-06-03T06:09:11.258Z,60.55
2018-06-03T06:11:37.545Z,60.27
2018-06-03T06:14:03.834Z,60.20
2018-06-03T06:16:32.104Z,60.63
2018-06-03T06:18:58.584Z,60.65
2018-06-03T06:21:24.836Z,59.66
2018-06-03T06:23:51.216Z,59.76
2018-06-03T06:26:17.669Z,59.72
2018-06-03T06:28:43.933Z,59.63
2018-06-03T06:31:10.305Z,59.34
2018-06-03T06:33:36.608Z,59.75
2018-06-03T06:36:02.851Z,59.37
2018-06-03T06:38:29.139Z,59.49
2018-06-03T06:40:55.416Z,60.22
2018-06-03T06:43:21.703Z,60.18
2018-06-03T06:45:48.071Z,60.46
2018-06-03T06:48:14.340Z,60.48
2018-06-03T06:50:40.786Z,60.23
2018-06-03T06:53:08.026Z,60.00
2018-06-03T06:55:34.290Z,59.80
2018-06-03T06:58:00.630Z,58.88
2018-06-03T07:00:27.152Z,58.27
2018-06-03T07:02:53.410Z,57.51
2018-06-03T07:05:59.848Z,57.10
2018-06-03T07:08:27.483Z,56.67
2018-06-03T07:10:55.073Z,55.09
2018-06-03T07:13:22.626Z,54.27
2018-06-03T07:15:50.260Z,54.01
2018-06-03T07:18:17.827Z,53.85
2018-06-03T07:20:45.382Z,52.76
2018-06-03T07:23:12.933Z,53.46
2018-06-03T07:25:40.503Z,51.16
2018-06-03T07:28:08.066Z,51.85
2018-06-03T07:30:35.591Z,53.17
2018-06-03T07:33:03.132Z,53.11
2018-06-03T07:35:30.675Z,53.59
2018-06-03T07:37:58.195Z,53.01
2018-06-03T07:40:25.709Z,53.41
2018-06-03T07:42:53.331Z,53.12
2018-06-03T07:45:20.845Z,52.93
2018-06-03T07:47:48.415Z,53.49
2018-06-03T07:50:16.174Z,54.68
2018-06-03T07:52:43.959Z,54.37
2018-06-03T07:55:11.648Z,53.63
2018-06-03T07:57:39.398Z,53.76
2018-06-03T08:00:07.074Z,53.43
2018-06-03T08:02:34.650Z,53.12
2018-06-03T08:05:02.243Z,53.33
2018-06-03T08:07:29.778Z,52.70
2018-06-03T08:09:57.287Z,52.99
2018-06-03T08:12:25.493Z,51.78
2018-06-03T08:14:53.325Z,51.64
2018-06-03T08:17:21.155Z,49.79
2018-06-03T08:19:48.930Z,49.37
2018-06-03T08:22:16.685Z,49.09
2018-06-03T08:24:44.380Z,49.50
2018-06-03T08:27:12.046Z,50.47
2018-06-03T08:29:39.618Z,51.09
2018-06-03T08:32:07.202Z,50.07
2018-06-03T08:34:34.751Z,49.83
2018-06-03T08:37:03.052Z,49.23
2018-06-03T08:39:31.566Z,47.25
2018-06-03T08:41:59.239Z,46.46
2018-06-03T08:44:26.823Z,46.46
2018-06-03T08:46:54.534Z,44.44
2018-06-03T08:49:22.331Z,43.68
2018-06-03T08:51:49.907Z,42.65
2018-06-03T08:54:17.426Z,43.80
2018-06-03T08:56:46.336Z,43.70
2018-06-03T08:59:13.987Z,45.55
2018-06-03T09:01:41.671Z,47.37
2018-06-03T09:04:09.353Z,48.65
2018-06-03T09:06:37.058Z,49.92
2018-06-03T09:09:06.207Z,48.37
2018-06-03T09:11:33.863Z,48.88
2018-06-03T09:14:01.579Z,49.36
2018-06-03T09:16:29.255Z,48.64
2018-06-03T09:18:56.847Z,47.09
2018-06-03T09:21:24.407Z,46.05
2018-06-03T09:23:52.110Z,43.75
2018-06-03T09:26:19.787Z,43.63
2018-06-03T09:28:47.499Z,39.57
2018-06-03T09:31:15.257Z,40.33
2018-06-03T09:33:42.814Z,40.11
2018-06-03T09:36:10.343Z,39.18
2018-06-03T09:38:38.473Z,41.13
2018-06-03T09:41:06.339Z,41.48
2018-06-03T09:43:33.940Z,43.00
2018-06-03T09:46:01.533Z,42.81
2018-06-03T09:48:29.412Z,40.04
2018-06-03T09:50:57.136Z,39.95
2018-06-03T09:53:24.900Z,36.51
2018-06-03T09:55:52.894Z,36.23
2018-06-03T09:58:20.544Z,35.88
2018-06-03T10:00:48.537Z,36.92
2018-06-03T10:03:16.473Z,36.22
2018-06-03T10:05:44.278Z,35.56
2018-06-03T10:08:12.005Z,36.13
2018-06-03T10:10:39.714Z,36.90
2018-06-03T10:13:07.723Z,35.26
2018-06-03T10:15:35.274Z,34.19
2018-06-03T10:18:02.908Z,34.11
2018-06-03T10:20:30.499Z,34.29
2018-06-03T10:22:58.091Z,33.05
2018-06-03T10:25:25.736Z,33.60
2018-06-03T10:27:53.286Z,31.37
2018-06-03T10:30:20.959Z,32.47
2018-06-03T10:32:48.831Z,32.53
2018-06-03T10:35:16.431Z,32.89
2018-06-03T10:37:44.108Z,34.19
2018-06-03T10:40:11.829Z,35.40
2018-06-03T10:42:40.219Z,37.23
2018-06-03T10:45:07.826Z,38.26
2018-06-03T10:47:35.399Z,38.86
2018-06-03T10:50:03.049Z,39.70
2018-06-03T10:52:30.698Z,40.66
2018-06-03T10:54:58.468Z,41.94
2018-06-03T10:57:26.001Z,41.44
2018-06-03T10:59:53.608Z,41.72
2018-06-03T11:02:21.310Z,41.64
2018-06-03T11:04:49.099Z,39.37
2018-06-03T11:07:16.911Z,38.77
2018-06-03T11:09:44.594Z,35.80
2018-06-03T11:12:12.174Z,37.18
2018-06-03T11:14:39.975Z,36.79
2018-06-03T11:17:07.575Z,37.74
2018-06-03T11:19:35.115Z,37.26
2018-06-03T11:22:02.635Z,37.78
2018-06-03T11:24:30.168Z,38.86
2018-06-03T11:26:57.706Z,40.29
2018-06-03T11:29:25.280Z,40.75
2018-06-03T11:31:52.871Z,40.81
2018-06-03T11:34:20.420Z,41.24
2018-06-03T11:36:47.927Z,41.46
2018-06-03T11:39:15.483Z,41.22
2018-06-03T11:41:42.992Z,40.69
2018-06-03T11:44:10.532Z,40.53
2018-06-03T11:46:38.118Z,35.85
2018-06-03T11:49:05.651Z,32.05
2018-06-03T11:51:33.215Z,29.18
2018-06-03T11:54:00.804Z,29.15
2018-06-03T11:56:39.475Z,28.23
2018-06-03T11:59:11.239Z,25.71
2018-06-03T12:01:38.794Z,25.84
2018-06-03T12:04:06.371Z,26.17
2018-06-03T12:06:33.957Z,24.31
2018-06-03T12:09:01.482Z,27.29
2018-06-03T12:11:29.183Z,29.06
2018-06-03T12:13:56.744Z,29.08
2018-06-03T12:16:24.315Z,30.73
2018-06-03T12:18:51.897Z,30.77
2018-06-03T12:21:19.456Z,28.62
2018-06-03T12:23:46.984Z,26.93
2018-06-03T12:26:14.510Z,26.05
2018-06-03T12:28:42.143Z,25.03
2018-06-03T12:31:09.678Z,24.45
2018-06-03T12:33:37.198Z,25.19
2018-06-03T12:36:04.763Z,25.59
2018-06-03T12:38:32.307Z,26.16
2018-06-03T12:40:59.874Z,27.66
2018-06-03T12:43:27.426Z,29.47
2018-06-03T12:45:54.960Z,28.07
2018-06-03T12:48:22.511Z,25.95
2018-06-03T12:50:50.446Z,25.53
2018-06-03T12:53:17.999Z,26.60
2018-06-03T12:55:45.526Z,28.73
2018-06-03T12:58:13.075Z,26.62
2018-06-03T13:00:40.586Z,23.97
2018-06-03T13:03:08.400Z,23.24
2018-06-03T13:05:35.938Z,22.35
2018-06-03T13:08:03.687Z,20.89
2018-06-03T13:10:31.237Z,21.45
2018-06-03T13:12:58.762Z,22.14
2018-06-03T13:15:26.442Z,23.85
2018-06-03T13:17:53.943Z,22.54
2018-06-03T13:20:21.663Z,21.50
2018-06-03T13:22:49.210Z,19.93
2018-06-03T13:25:16.761Z,20.44
2018-06-03T13:27:44.345Z,19.86
2018-06-03T13:30:11.851Z,19.65
2018-06-03T13:32:39.354Z,19.49
2018-06-03T13:35:06.927Z,18.54
2018-06-03T13:37:34.484Z,18.60
2018-06-03T13:40:02.052Z,18.81
2018-06-03T13:42:29.631Z,18.38
2018-06-03T13:44:57.147Z,18.84
2018-06-03T13:47:24.646Z,18.47
2018-06-03T13:49:52.224Z,18.12
2018-06-03T13:52:19.753Z,18.58
2018-06-03T13:54:47.264Z,18.73
2018-06-03T13:57:14.830Z,17.49
2018-06-03T13:59:42.379Z,19.23
2018-06-03T14:02:09.891Z,19.24
2018-06-03T14:04:37.454Z,19.37
2018-06-03T14:07:04.965Z,19.10
2018-06-03T14:09:32.472Z,20.55
2018-06-03T14:12:06.741Z,23.47
2018-06-03T14:14:34.438Z,24.93
2018-06-03T14:17:01.972Z,26.75
2018-06-03T14:19:29.589Z,27.48
2018-06-03T14:21:57.193Z,29.12
2018-06-03T14:24:24.723Z,27.59
2018-06-03T14:26:52.290Z,26.81
2018-06-03T14:29:19.804Z,23.39
2018-06-03T14:31:47.319Z,21.95
2018-06-03T14:34:14.871Z,20.83
2018-06-03T14:36:42.563Z,20.87
2018-06-03T14:39:10.107Z,23.04
2018-06-03T14:41:37.692Z,22.86
2018-06-03T14:44:05.271Z,21.69
2018-06-03T14:46:32.791Z,22.00
2018-06-03T14:49:00.330Z,21.41
2018-06-03T14:51:27.867Z,22.25
2018-06-03T14:53:55.400Z,22.92
2018-06-03T14:56:22.964Z,25.33
2018-06-03T14:58:50.636Z,25.66
2018-06-03T15:01:18.211Z,25.44
2018-06-03T15:03:45.866Z,24.73
2018-06-03T15:06:13.504Z,26.10
2018-06-03T15:08:41.054Z,25.45
2018-06-03T15:11:08.590Z,27.45
2018-06-03T15:13:36.159Z,27.15
2018-06-03T15:16:03.691Z,27.51
2018-06-03T15:18:31.250Z,28.46
2018-06-03T15:20:58.832Z,28.31
2018-06-03T15:23:26.379Z,28.61
2018-06-03T15:25:53.961Z,27.96
2018-06-03T15:28:21.507Z,28.63
2018-06-03T15:30:49.047Z,29.18
2018-06-03T15:33:16.597Z,29.47
2018-06-03T15:35:44.144Z,29.57
2018-06-03T15:38:11.664Z,30.23
2018-06-03T15:40:39.247Z,30.93
2018-06-03T15:43:06.779Z,32.25
2018-06-03T15:45:34.319Z,32.16
2018-06-03T15:48:01.952Z,31.93
2018-06-03T15:50:29.475Z,33.44
2018-06-03T15:52:57.002Z,33.53
2018-06-03T15:55:24.568Z,32.00
2018-06-03T15:57:52.078Z,33.38
2018-06-03T16:00:19.619Z,33.25
2018-06-03T16:02:47.171Z,33.16
2018-06-03T16:05:14.722Z,34.13
2018-06-03T16:07:42.285Z,33.12
2018-06-03T16:10:09.865Z,33.07
2018-06-03T16:12:37.400Z,33.29
2018-06-03T16:15:04.995Z,33.76
2018-06-03T16:17:32.559Z,33.99
2018-06-03T16:20:00.103Z,34.86
2018-06-03T16:22:27.611Z,34.61
2018-06-03T16:24:55.164Z,34.15
2018-06-03T16:27:22.711Z,34.62
2018-06-03T16:29:50.280Z,35.19
2018-06-03T16:32:17.864Z,33.79
2018-06-03T16:34:45.390Z,33.42
2018-06-03T16:37:12.902Z,33.99
2018-06-03T16:39:40.438Z,34.30
2018-06-03T16:42:07.987Z,35.67
2018-06-03T16:44:35.547Z,35.38
2018-06-03T16:47:03.187Z,35.55
2018-06-03T16:49:30.706Z,35.76
2018-06-03T16:51:58.271Z,36.78
2018-06-03T16:54:25.862Z,37.34
2018-06-03T16:56:53.416Z,37.11
2018-06-03T16:59:20.959Z,37.20
2018-06-03T17:01:48.486Z,36.89
2018-06-03T17:04:16.028Z,36.60
2018-06-03T17:09:46.619Z,37.31
2018-06-03T17:12:14.500Z,37.12
2018-06-03T17:14:42.043Z,37.11
2018-06-03T17:17:09.775Z,37.65
2018-06-03T17:19:37.344Z,38.00
2018-06-03T17:22:04.884Z,37.77
2018-06-03T17:24:32.426Z,37.79
2018-06-03T17:26:59.967Z,38.05
2018-06-03T17:29:27.527Z,38.72
2018-06-03T17:31:55.112Z,38.90
2018-06-03T17:34:22.679Z,38.58
2018-06-03T17:36:50.215Z,38.88
2018-06-03T17:39:17.795Z,39.28
2018-06-03T17:41:45.356Z,39.08
2018-06-03T17:44:12.878Z,39.45
2018-06-03T17:46:40.444Z,39.12
2018-06-03T17:49:07.990Z,39.47
2018-06-03T17:51:35.535Z,40.28
2018-06-03T17:54:03.108Z,40.26
2018-06-03T17:56:30.632Z,40.46
2018-06-03T17:58:58.160Z,40.36
2018-06-03T18:01:25.755Z,41.27
2018-06-03T18:03:53.325Z,40.95
2018-06-03T18:06:20.865Z,41.13
2018-06-03T18:08:48.414Z,41.43
2018-06-03T18:11:16.271Z,41.35
2018-06-03T18:13:43.811Z,41.72
2018-06-03T18:16:11.378Z,41.78
2018-06-03T18:18:38.975Z,41.91
2018-06-03T18:21:06.519Z,42.16
2018-06-03T18:26:08.671Z,43.06
2018-06-03T18:28:36.226Z,43.55
2018-06-03T18:31:03.735Z,44.30
2018-06-03T18:33:31.254Z,44.80
2018-06-03T18:35:58.814Z,44.95
2018-06-03T18:38:26.326Z,46.21
2018-06-03T18:40:53.959Z,46.56
2018-06-03T18:43:21.520Z,46.92
2018-06-03T18:45:49.293Z,46.62
2018-06-03T18:48:16.837Z,47.25
2018-06-03T18:50:44.554Z,47.18
2018-06-03T18:53:12.063Z,48.29
2018-06-03T18:55:39.797Z,48.30
2018-06-03T18:58:07.438Z,48.76
2018-06-03T19:00:35.010Z,49.05
2018-06-03T19:03:02.767Z,49.15
2018-06-03T19:05:30.355Z,49.15
2018-06-03T19:07:58.010Z,49.43
2018-06-03T19:10:25.640Z,49.26
2018-06-03T19:12:53.206Z,49.93
2018-06-03T19:15:20.876Z,50.57
2018-06-03T19:17:48.475Z,50.68
2018-06-03T19:20:16.143Z,50.40
2018-06-03T19:22:43.768Z,51.03
2018-06-03T19:25:11.306Z,51.36
2018-06-03T19:27:39.088Z,51.51
2018-06-03T19:30:06.571Z,52.09
2018-06-03T19:32:34.168Z,51.60
2018-06-03T19:35:01.816Z,52.01
2018-06-03T19:37:29.342Z,52.20
2018-06-03T19:40:03.399Z,52.53
2018-06-03T19:42:31.095Z,52.60
2018-06-03T19:44:58.631Z,53.50
2018-06-03T19:47:26.213Z,53.82
2018-06-03T19:49:53.899Z,54.00
2018-06-03T19:52:21.496Z,53.98
2018-06-03T19:54:49.142Z,53.37
2018-06-03T19:57:16.653Z,53.91
2018-06-03T19:59:44.171Z,53.89
2018-06-03T20:02:11.920Z,54.23
2018-06-03T20:04:39.446Z,54.36
2018-06-03T20:07:07.367Z,54.38
2018-06-03T20:09:34.912Z,54.41
2018-06-03T20:12:02.419Z,54.70
2018-06-03T20:14:30.092Z,54.69
2018-06-03T20:16:57.695Z,55.06
2018-06-03T20:19:25.432Z,54.99
2018-06-03T20:21:52.987Z,55.39
2018-06-03T20:24:20.516Z,55.43
2018-06-03T20:26:48.374Z,55.65
2018-06-03T20:29:15.869Z,55.46
2018-06-03T20:31:43.550Z,55.85
2018-06-03T20:34:11.089Z,55.91
2018-06-03T20:36:38.627Z,55.99
2018-06-03T20:39:07.104Z,56.31
2018-06-03T20:41:34.615Z,56.04
2018-06-03T20:44:02.415Z,56.50
2018-06-03T20:46:30.143Z,56.67
2018-06-03T20:48:57.649Z,56.76
2018-06-03T20:51:25.186Z,56.93
2018-06-03T20:53:52.762Z,57.05
2018-06-03T20:56:20.430Z,57.15
2018-06-03T20:58:47.968Z,57.42
2018-06-03T21:01:15.598Z,57.14
2018-06-03T21:03:43.339Z,57.46
2018-06-03T21:06:10.835Z,57.89
2018-06-03T21:08:38.591Z,57.77
2018-06-03T21:11:06.114Z,57.66
2018-06-03T21:13:33.662Z,57.89
2018-06-03T21:16:01.470Z,58.10
2018-06-03T21:18:28.976Z,58.23
2018-06-03T21:20:56.645Z,58.08
2018-06-03T21:23:24.190Z,58.36
2018-06-03T21:25:51.751Z,58.21
2018-06-03T21:28:19.434Z,58.42
2018-06-03T21:30:46.977Z,58.72
2018-06-03T21:33:14.650Z,58.73
2018-06-03T21:35:42.131Z,59.02
2018-06-03T21:38:09.714Z,58.78
2018-06-03T21:40:37.396Z,59.20
2018-06-03T21:43:04.963Z,59.35
2018-06-03T21:45:32.622Z,59.49
2018-06-03T21:48:00.131Z,59.12
2018-06-03T21:50:27.644Z,59.53
2018-06-03T21:52:55.215Z,59.46
2018-06-03T21:55:22.738Z,59.36
2018-06-03T21:57:50.267Z,59.53
2018-06-03T22:00:17.798Z,59.64
2018-06-03T22:02:45.306Z,59.13
2018-06-03T22:05:12.835Z,59.60
2018-06-03T22:07:40.382Z,59.29
2018-06-03T22:10:07.887Z,59.70
2018-06-03T22:12:35.413Z,59.54
2018-06-03T22:15:03.030Z,59.79
2018-06-03T22:17:30.554Z,59.93
2018-06-03T22:19:58.070Z,60.07
2018-06-03T22:22:25.602Z,59.95
2018-06-03T22:24:53.127Z,60.08
2018-06-03T22:27:20.639Z,60.15
2018-06-03T22:29:48.175Z,60.23
2018-06-03T22:32:15.675Z,59.92
2018-06-03T22:34:43.203Z,59.96
2018-06-03T22:37:10.735Z,60.51
2018-06-03T22:39:38.286Z,60.81
2018-06-03T22:42:05.791Z,60.67
2018-06-03T22:44:33.338Z,60.56
2018-06-03T22:47:00.840Z,60.64
2018-06-03T22:49:28.341Z,60.34
2018-06-03T22:51:55.900Z,60.67
2018-06-03T22:54:23.405Z,60.97
2018-06-03T22:57:01.863Z,61.18
2018-06-03T22:59:29.370Z,60.95
2018-06-03T23:01:56.923Z,61.58
2018-06-03T23:04:24.450Z,61.36
2018-06-03T23:06:51.971Z,61.88
2018-06-03T23:09:19.487Z,61.62
2018-06-03T23:11:47.047Z,61.22
2018-06-03T23:14:14.563Z,61.94
2018-06-03T23:16:42.079Z,61.96
2018-06-03T23:19:09.603Z,62.31
2018-06-03T23:21:37.134Z,62.47
2018-06-03T23:24:04.672Z,62.15
2018-06-03T23:26:32.196Z,62.09
2018-06-03T23:28:59.714Z,62.36
2018-06-03T23:31:27.226Z,62.21
2018-06-03T23:33:54.782Z,62.41
2018-06-03T23:36:22.283Z,62.64
2018-06-03T23:38:49.814Z,62.89
2018-06-03T23:41:17.333Z,63.24
2018-06-03T23:43:44.847Z,62.95
2018-06-03T23:46:12.418Z,63.03
2018-06-03T23:48:39.943Z,62.88
2018-06-03T23:51:07.443Z,63.02
2018-06-03T23:53:34.943Z,63.03
2018-06-03T23:56:02.506Z,63.06
2018-06-03T23:58:30.058Z,63.15
